sensor_id;sensor_type;location;lat;lon;timestamp;pressure;altitude;pressure_sealevel;temperature;humidity
66547;BME280;53400;50.364;14.874;2023-12-07T00:00:04;98706.69;;;-0.51;100.00
66547;BME280;53400;50.364;14.874;2023-12-07T00:02:30;98702.97;;;-0.65;100.00
66547;BME280;53400;50.364;14.874;2023-12-07T00:04:56;98703.84;;;-0.73;100.00
66547;BME280;53400;50.364;14.874;2023-12-07T00:07:22;98707.41;;;-0.65;100.00
66547;BME280;53400;50.364;14.874;2023-12-07T00:09:48;98707.28;;;-0.72;100.00
66547;BME280;53400;50.364;14.874;2023-12-07T00:12:16;98711.84;;;-0.66;100.00
66547;BME280;53400;50.364;14.874;2023-12-07T00:14:42;98705.28;;;-0.70;100.00
66547;BME280;53400;50.364;14.874;2023-12-07T00:17:08;98698.72;;;-0.74;100.00
66547;BME280;53400;50.364;14.874;2023-12-07T00:19:34;98707.97;;;-0.78;100.00
66547;BME280;53400;50.364;14.874;2023-12-07T00:22:00;98705.94;;;-0.68;100.00
66547;BME280;53400;50.364;14.874;2023-12-07T00:24:26;98708.09;;;-0.72;100.00
66547;BME280;53400;50.364;14.874;2023-12-07T00:26:52;98710.25;;;-0.75;100.00
66547;BME280;53400;50.364;14.874;2023-12-07T00:29:19;98714.84;;;-0.77;100.00
66547;BME280;53400;50.364;14.874;2023-12-07T00:31:46;98715.78;;;-1.09;100.00
66547;BME280;53400;50.364;14.874;2023-12-07T00:34:12;98711.63;;;-1.04;100.00
66547;BME280;53400;50.364;14.874;2023-12-07T00:36:38;98716.81;;;-0.79;100.00
66547;BME280;53400;50.364;14.874;2023-12-07T00:39:07;98724.41;;;-0.84;100.00
66547;BME280;53400;50.364;14.874;2023-12-07T00:41:34;98725.88;;;-0.82;100.00
66547;BME280;53400;50.364;14.874;2023-12-07T00:44:00;98731.69;;;-1.03;100.00
66547;BME280;53400;50.364;14.874;2023-12-07T00:46:27;98734.13;;;-1.01;100.00
66547;BME280;53400;50.364;14.874;2023-12-07T00:48:53;98743.22;;;-1.20;100.00
66547;BME280;53400;50.364;14.874;2023-12-07T00:51:19;98743.22;;;-1.12;100.00
66547;BME280;53400;50.364;14.874;2023-12-07T00:53:46;98736.16;;;-1.11;100.00
66547;BME280;53400;50.364;14.874;2023-12-07T00:56:12;98741.59;;;-1.21;100.00
66547;BME280;53400;50.364;14.874;2023-12-07T00:58:38;98739.63;;;-1.27;100.00
66547;BME280;53400;50.364;14.874;2023-12-07T01:01:04;98746.66;;;-1.20;100.00
66547;BME280;53400;50.364;14.874;2023-12-07T01:03:32;98741.25;;;-1.18;100.00
66547;BME280;53400;50.364;14.874;2023-12-07T01:05:58;98744.84;;;-1.03;100.00
66547;BME280;53400;50.364;14.874;2023-12-07T01:08:24;98751.41;;;-1.07;100.00
66547;BME280;53400;50.364;14.874;2023-12-07T01:10:50;98751.72;;;-1.02;100.00
66547;BME280;53400;50.364;14.874;2023-12-07T01:13:16;98763.53;;;-0.98;100.00
66547;BME280;53400;50.364;14.874;2023-12-07T01:15:42;98757.94;;;-0.86;100.00
66547;BME280;53400;50.364;14.874;2023-12-07T01:18:08;98758.63;;;-1.01;100.00
66547;BME280;53400;50.364;14.874;2023-12-07T01:20:35;98768.00;;;-1.14;100.00
66547;BME280;53400;50.364;14.874;2023-12-07T01:23:01;98771.47;;;-1.39;100.00
66547;BME280;53400;50.364;14.874;2023-12-07T01:25:28;98755.88;;;-1.40;100.00
66547;BME280;53400;50.364;14.874;2023-12-07T01:27:54;98765.22;;;-1.38;100.00
66547;BME280;53400;50.364;14.874;2023-12-07T01:30:20;98768.81;;;-1.22;100.00
66547;BME280;53400;50.364;14.874;2023-12-07T01:32:46;98771.41;;;-0.98;100.00
66547;BME280;53400;50.364;14.874;2023-12-07T01:35:12;98769.97;;;-1.00;100.00
66547;BME280;53400;50.364;14.874;2023-12-07T01:37:40;98770.41;;;-0.88;100.00
66547;BME280;53400;50.364;14.874;2023-12-07T01:40:07;98772.31;;;-1.22;100.00
66547;BME280;53400;50.364;14.874;2023-12-07T01:42:36;98768.00;;;-1.23;100.00
66547;BME280;53400;50.364;14.874;2023-12-07T01:45:03;98771.97;;;-1.19;100.00
66547;BME280;53400;50.364;14.874;2023-12-07T01:47:29;98772.94;;;-1.20;100.00
66547;BME280;53400;50.364;14.874;2023-12-07T01:49:56;98777.72;;;-1.23;100.00
66547;BME280;53400;50.364;14.874;2023-12-07T01:52:23;98771.47;;;-1.06;100.00
66547;BME280;53400;50.364;14.874;2023-12-07T01:54:51;98772.28;;;-1.13;100.00
66547;BME280;53400;50.364;14.874;2023-12-07T01:57:18;98772.56;;;-0.92;100.00
66547;BME280;53400;50.364;14.874;2023-12-07T01:59:46;98773.84;;;-0.72;100.00
66547;BME280;53400;50.364;14.874;2023-12-07T02:02:13;98778.00;;;-0.94;100.00
66547;BME280;53400;50.364;14.874;2023-12-07T02:04:39;98779.81;;;-0.94;100.00
66547;BME280;53400;50.364;14.874;2023-12-07T02:07:06;98783.69;;;-0.74;100.00
66547;BME280;53400;50.364;14.874;2023-12-07T02:09:33;98783.44;;;-1.11;100.00
66547;BME280;53400;50.364;14.874;2023-12-07T02:12:01;98787.56;;;-1.09;100.00
66547;BME280;53400;50.364;14.874;2023-12-07T02:14:27;98787.22;;;-1.14;100.00
66547;BME280;53400;50.364;14.874;2023-12-07T02:16:56;98798.41;;;-1.20;100.00
66547;BME280;53400;50.364;14.874;2023-12-07T02:22:27;98803.47;;;-0.94;100.00
66547;BME280;53400;50.364;14.874;2023-12-07T02:25:05;98799.53;;;-0.90;100.00
66547;BME280;53400;50.364;14.874;2023-12-07T02:27:38;98801.03;;;-1.12;100.00
66547;BME280;53400;50.364;14.874;2023-12-07T02:30:05;98802.53;;;-1.42;100.00
66547;BME280;53400;50.364;14.874;2023-12-07T02:32:32;98805.47;;;-1.21;100.00
66547;BME280;53400;50.364;14.874;2023-12-07T02:34:58;98795.78;;;-1.28;100.00
66547;BME280;53400;50.364;14.874;2023-12-07T02:37:27;98797.75;;;-1.47;100.00
66547;BME280;53400;50.364;14.874;2023-12-07T02:39:55;98807.44;;;-1.47;100.00
66547;BME280;53400;50.364;14.874;2023-12-07T02:42:22;98802.50;;;-1.26;100.00
66547;BME280;53400;50.364;14.874;2023-12-07T02:44:52;98803.00;;;-1.14;100.00
66547;BME280;53400;50.364;14.874;2023-12-07T02:47:18;98803.63;;;-1.04;100.00
66547;BME280;53400;50.364;14.874;2023-12-07T02:49:45;98807.88;;;-0.78;100.00
66547;BME280;53400;50.364;14.874;2023-12-07T02:52:11;98810.84;;;-0.98;100.00
66547;BME280;53400;50.364;14.874;2023-12-07T02:54:37;98814.97;;;-0.79;100.00
66547;BME280;53400;50.364;14.874;2023-12-07T02:57:04;98817.94;;;-0.90;100.00
66547;BME280;53400;50.364;14.874;2023-12-07T02:59:30;98817.06;;;-0.82;100.00
66547;BME280;53400;50.364;14.874;2023-12-07T03:01:57;98812.47;;;-0.72;100.00
66547;BME280;53400;50.364;14.874;2023-12-07T03:04:23;98813.34;;;-0.88;100.00
66547;BME280;53400;50.364;14.874;2023-12-07T03:06:49;98815.13;;;-0.88;100.00
66547;BME280;53400;50.364;14.874;2023-12-07T03:09:15;98823.38;;;-1.00;100.00
66547;BME280;53400;50.364;14.874;2023-12-07T03:11:41;98833.22;;;-1.02;100.00
66547;BME280;53400;50.364;14.874;2023-12-07T03:14:07;98834.88;;;-1.17;100.00
66547;BME280;53400;50.364;14.874;2023-12-07T03:16:33;98834.66;;;-0.66;100.00
66547;BME280;53400;50.364;14.874;2023-12-07T03:19:02;98835.84;;;-0.94;100.00
66547;BME280;53400;50.364;14.874;2023-12-07T03:21:28;98838.13;;;-0.74;100.00
66547;BME280;53400;50.364;14.874;2023-12-07T03:23:54;98847.03;;;-1.08;100.00
66547;BME280;53400;50.364;14.874;2023-12-07T03:26:20;98848.16;;;-1.10;100.00
66547;BME280;53400;50.364;14.874;2023-12-07T03:28:46;98846.66;;;-0.72;100.00
66547;BME280;53400;50.364;14.874;2023-12-07T03:31:12;98844.03;;;-0.80;100.00
66547;BME280;53400;50.364;14.874;2023-12-07T03:33:41;98847.28;;;-0.54;100.00
66547;BME280;53400;50.364;14.874;2023-12-07T03:36:10;98849.59;;;-0.59;100.00
66547;BME280;53400;50.364;14.874;2023-12-07T03:38:36;98849.94;;;-0.62;100.00
66547;BME280;53400;50.364;14.874;2023-12-07T03:41:03;98852.94;;;-1.22;100.00
66547;BME280;53400;50.364;14.874;2023-12-07T03:43:30;98856.38;;;-1.13;100.00
66547;BME280;53400;50.364;14.874;2023-12-07T03:45:56;98856.53;;;-1.23;100.00
66547;BME280;53400;50.364;14.874;2023-12-07T03:48:22;98864.75;;;-1.02;100.00
66547;BME280;53400;50.364;14.874;2023-12-07T03:50:48;98871.31;;;-0.89;100.00
66547;BME280;53400;50.364;14.874;2023-12-07T03:53:15;98865.56;;;-1.01;100.00
66547;BME280;53400;50.364;14.874;2023-12-07T03:55:41;98877.09;;;-1.19;100.00
66547;BME280;53400;50.364;14.874;2023-12-07T03:58:07;98870.19;;;-1.28;100.00
66547;BME280;53400;50.364;14.874;2023-12-07T04:00:34;98870.84;;;-1.18;100.00
66547;BME280;53400;50.364;14.874;2023-12-07T04:02:59;98872.00;;;-1.12;100.00
66547;BME280;53400;50.364;14.874;2023-12-07T04:05:25;98876.09;;;-1.18;100.00
66547;BME280;53400;50.364;14.874;2023-12-07T04:07:51;98879.22;;;-1.06;100.00
66547;BME280;53400;50.364;14.874;2023-12-07T04:10:19;98889.25;;;-0.93;100.00
66547;BME280;53400;50.364;14.874;2023-12-07T04:12:45;98883.84;;;-1.00;100.00
66547;BME280;53400;50.364;14.874;2023-12-07T04:15:12;98879.88;;;-1.04;100.00
66547;BME280;53400;50.364;14.874;2023-12-07T04:17:38;98877.09;;;-0.94;100.00
66547;BME280;53400;50.364;14.874;2023-12-07T04:20:04;98881.47;;;-0.45;100.00
66547;BME280;53400;50.364;14.874;2023-12-07T04:22:31;98876.56;;;-0.49;100.00
66547;BME280;53400;50.364;14.874;2023-12-07T04:24:57;98879.84;;;-0.79;100.00
66547;BME280;53400;50.364;14.874;2023-12-07T04:27:24;98883.97;;;-0.77;100.00
66547;BME280;53400;50.364;14.874;2023-12-07T04:29:51;98881.66;;;-0.80;100.00
66547;BME280;53400;50.364;14.874;2023-12-07T04:32:17;98893.69;;;-0.69;100.00
66547;BME280;53400;50.364;14.874;2023-12-07T04:34:43;98891.38;;;-0.72;100.00
66547;BME280;53400;50.364;14.874;2023-12-07T04:37:09;98890.19;;;-0.61;100.00
66547;BME280;53400;50.364;14.874;2023-12-07T04:39:36;98903.53;;;-0.63;100.00
66547;BME280;53400;50.364;14.874;2023-12-07T04:42:02;98901.53;;;-0.53;100.00
66547;BME280;53400;50.364;14.874;2023-12-07T04:44:29;98895.78;;;-0.56;100.00
66547;BME280;53400;50.364;14.874;2023-12-07T04:46:55;98893.81;;;-0.71;100.00
66547;BME280;53400;50.364;14.874;2023-12-07T04:49:21;98904.84;;;-0.67;100.00
66547;BME280;53400;50.364;14.874;2023-12-07T04:51:47;98906.31;;;-0.64;100.00
66547;BME280;53400;50.364;14.874;2023-12-07T04:54:14;98906.50;;;-0.58;100.00
66547;BME280;53400;50.364;14.874;2023-12-07T04:56:42;98902.69;;;-0.47;100.00
66547;BME280;53400;50.364;14.874;2023-12-07T04:59:09;98894.31;;;-0.51;100.00
66547;BME280;53400;50.364;14.874;2023-12-07T05:01:37;98898.28;;;-0.55;100.00
66547;BME280;53400;50.364;14.874;2023-12-07T05:04:03;98899.22;;;-0.56;100.00
66547;BME280;53400;50.364;14.874;2023-12-07T05:06:29;98912.56;;;-0.74;100.00
66547;BME280;53400;50.364;14.874;2023-12-07T05:08:55;98912.25;;;-0.79;100.00
66547;BME280;53400;50.364;14.874;2023-12-07T05:11:21;98917.81;;;-0.41;100.00
66547;BME280;53400;50.364;14.874;2023-12-07T05:13:48;98917.13;;;-0.35;100.00
66547;BME280;53400;50.364;14.874;2023-12-07T05:16:14;98912.06;;;-0.36;100.00
66547;BME280;53400;50.364;14.874;2023-12-07T05:18:42;98921.59;;;-0.76;100.00
66547;BME280;53400;50.364;14.874;2023-12-07T05:21:09;98921.44;;;-0.75;100.00
66547;BME280;53400;50.364;14.874;2023-12-07T05:23:35;98926.88;;;-0.68;100.00
66547;BME280;53400;50.364;14.874;2023-12-07T05:26:02;98924.59;;;-0.87;100.00
66547;BME280;53400;50.364;14.874;2023-12-07T05:28:28;98926.03;;;-0.77;100.00
66547;BME280;53400;50.364;14.874;2023-12-07T05:30:54;98929.50;;;-0.68;100.00
66547;BME280;53400;50.364;14.874;2023-12-07T05:33:23;98928.03;;;-0.62;100.00
66547;BME280;53400;50.364;14.874;2023-12-07T05:35:52;98928.19;;;-0.64;100.00
66547;BME280;53400;50.364;14.874;2023-12-07T05:38:19;98928.00;;;-0.46;100.00
66547;BME280;53400;50.364;14.874;2023-12-07T05:40:45;98928.00;;;0.80;100.00
66547;BME280;53400;50.364;14.874;2023-12-07T05:43:12;98927.72;;;0.75;100.00
66547;BME280;53400;50.364;14.874;2023-12-07T05:45:38;98940.06;;;0.12;100.00
66547;BME280;53400;50.364;14.874;2023-12-07T05:48:04;98938.78;;;-0.08;100.00
66547;BME280;53400;50.364;14.874;2023-12-07T05:50:33;98934.34;;;-0.16;100.00
66547;BME280;53400;50.364;14.874;2023-12-07T05:53:01;98938.03;;;-0.33;100.00
66547;BME280;53400;50.364;14.874;2023-12-07T05:55:26;98940.66;;;-0.82;100.00
66547;BME280;53400;50.364;14.874;2023-12-07T05:57:53;98942.66;;;-0.84;100.00
66547;BME280;53400;50.364;14.874;2023-12-07T06:00:19;98940.50;;;-0.64;100.00
66547;BME280;53400;50.364;14.874;2023-12-07T06:02:45;98950.53;;;-0.68;100.00
66547;BME280;53400;50.364;14.874;2023-12-07T06:05:11;98953.00;;;-0.58;100.00
66547;BME280;53400;50.364;14.874;2023-12-07T06:07:37;98953.50;;;-0.63;100.00
66547;BME280;53400;50.364;14.874;2023-12-07T06:10:05;98957.94;;;-0.47;100.00
66547;BME280;53400;50.364;14.874;2023-12-07T06:12:31;98958.09;;;-0.32;100.00
66547;BME280;53400;50.364;14.874;2023-12-07T06:14:57;98963.69;;;-0.43;100.00
66547;BME280;53400;50.364;14.874;2023-12-07T06:17:23;98966.97;;;-0.50;100.00
66547;BME280;53400;50.364;14.874;2023-12-07T06:19:49;98958.41;;;-0.27;100.00
66547;BME280;53400;50.364;14.874;2023-12-07T06:22:15;98962.06;;;-0.36;100.00
66547;BME280;53400;50.364;14.874;2023-12-07T06:24:41;98960.72;;;-0.32;100.00
66547;BME280;53400;50.364;14.874;2023-12-07T06:27:09;98969.28;;;-0.38;100.00
66547;BME280;53400;50.364;14.874;2023-12-07T06:29:35;98972.91;;;-0.64;100.00
66547;BME280;53400;50.364;14.874;2023-12-07T06:32:02;98972.91;;;-0.39;100.00
66547;BME280;53400;50.364;14.874;2023-12-07T06:34:28;98965.19;;;-0.57;100.00
66547;BME280;53400;50.364;14.874;2023-12-07T06:36:54;98967.63;;;-0.56;100.00
66547;BME280;53400;50.364;14.874;2023-12-07T06:39:20;98972.06;;;-0.32;100.00
66547;BME280;53400;50.364;14.874;2023-12-07T06:41:46;98968.56;;;0.01;100.00
66547;BME280;53400;50.364;14.874;2023-12-07T06:44:14;98970.56;;;-0.34;100.00
66547;BME280;53400;50.364;14.874;2023-12-07T06:46:40;98973.03;;;-0.08;100.00
66547;BME280;53400;50.364;14.874;2023-12-07T06:49:06;98969.91;;;-0.20;100.00
66547;BME280;53400;50.364;14.874;2023-12-07T06:51:32;98969.28;;;-0.47;100.00
66547;BME280;53400;50.364;14.874;2023-12-07T06:53:58;98978.13;;;-0.23;100.00
66547;BME280;53400;50.364;14.874;2023-12-07T06:56:24;98987.38;;;-0.35;100.00
66547;BME280;53400;50.364;14.874;2023-12-07T06:58:50;98986.69;;;-0.37;100.00
66547;BME280;53400;50.364;14.874;2023-12-07T07:01:18;98989.50;;;-0.31;100.00
66547;BME280;53400;50.364;14.874;2023-12-07T07:03:44;98997.53;;;0.01;100.00
66547;BME280;53400;50.364;14.874;2023-12-07T07:06:10;98991.94;;;-0.05;100.00
66547;BME280;53400;50.364;14.874;2023-12-07T07:08:35;98990.44;;;-0.07;100.00
66547;BME280;53400;50.364;14.874;2023-12-07T07:11:08;98988.81;;;-0.25;100.00
66547;BME280;53400;50.364;14.874;2023-12-07T07:13:35;98991.47;;;-0.33;100.00
66547;BME280;53400;50.364;14.874;2023-12-07T07:16:04;98997.53;;;0.01;100.00
66547;BME280;53400;50.364;14.874;2023-12-07T07:18:31;98998.34;;;-0.07;100.00
66547;BME280;53400;50.364;14.874;2023-12-07T07:20:58;99006.41;;;-0.01;100.00
66547;BME280;53400;50.364;14.874;2023-12-07T07:23:24;98999.63;;;0.13;100.00
66547;BME280;53400;50.364;14.874;2023-12-07T07:25:50;99000.13;;;0.09;100.00
66547;BME280;53400;50.364;14.874;2023-12-07T07:28:16;99008.41;;;-0.11;100.00
66547;BME280;53400;50.364;14.874;2023-12-07T07:30:42;99008.88;;;-0.15;100.00
66547;BME280;53400;50.364;14.874;2023-12-07T07:33:08;99013.81;;;-0.12;100.00
66547;BME280;53400;50.364;14.874;2023-12-07T07:35:36;99009.25;;;-0.35;100.00
66547;BME280;53400;50.364;14.874;2023-12-07T07:38:01;99014.94;;;0.10;100.00
66547;BME280;53400;50.364;14.874;2023-12-07T07:40:28;99016.38;;;0.20;100.00
66547;BME280;53400;50.364;14.874;2023-12-07T07:42:54;99013.00;;;0.04;100.00
66547;BME280;53400;50.364;14.874;2023-12-07T07:45:20;99020.38;;;0.16;100.00
66547;BME280;53400;50.364;14.874;2023-12-07T07:47:47;99017.09;;;-0.10;100.00
66547;BME280;53400;50.364;14.874;2023-12-07T07:50:13;99015.97;;;0.01;100.00
66547;BME280;53400;50.364;14.874;2023-12-07T07:52:43;99012.66;;;-0.10;100.00
66547;BME280;53400;50.364;14.874;2023-12-07T07:55:10;99013.28;;;0.09;100.00
66547;BME280;53400;50.364;14.874;2023-12-07T07:57:37;99013.28;;;0.17;100.00
66547;BME280;53400;50.364;14.874;2023-12-07T08:00:04;99006.38;;;0.16;100.00
66547;BME280;53400;50.364;14.874;2023-12-07T08:02:34;99009.97;;;0.15;100.00
66547;BME280;53400;50.364;14.874;2023-12-07T08:05:00;99011.88;;;0.45;100.00
66547;BME280;53400;50.364;14.874;2023-12-07T08:07:26;99016.75;;;0.65;100.00
66547;BME280;53400;50.364;14.874;2023-12-07T08:09:57;99007.00;;;0.65;100.00
66547;BME280;53400;50.364;14.874;2023-12-07T08:12:23;99019.72;;;0.62;100.00
66547;BME280;53400;50.364;14.874;2023-12-07T08:14:49;99018.59;;;0.56;100.00
66547;BME280;53400;50.364;14.874;2023-12-07T08:17:15;99019.94;;;0.83;100.00
66547;BME280;53400;50.364;14.874;2023-12-07T08:19:42;99018.31;;;0.82;100.00
66547;BME280;53400;50.364;14.874;2023-12-07T08:22:08;99024.66;;;0.65;100.00
66547;BME280;53400;50.364;14.874;2023-12-07T08:24:34;99017.06;;;0.70;100.00
66547;BME280;53400;50.364;14.874;2023-12-07T08:27:02;99022.81;;;0.74;100.00
66547;BME280;53400;50.364;14.874;2023-12-07T08:29:29;99033.47;;;0.80;100.00
66547;BME280;53400;50.364;14.874;2023-12-07T08:31:55;99026.91;;;1.07;100.00
66547;BME280;53400;50.364;14.874;2023-12-07T08:34:21;99025.25;;;1.06;100.00
66547;BME280;53400;50.364;14.874;2023-12-07T08:36:47;99024.09;;;1.09;100.00
66547;BME280;53400;50.364;14.874;2023-12-07T08:39:14;99037.00;;;1.04;100.00
66547;BME280;53400;50.364;14.874;2023-12-07T08:41:39;99028.44;;;1.02;100.00
66547;BME280;53400;50.364;14.874;2023-12-07T08:44:07;99031.25;;;1.23;100.00
66547;BME280;53400;50.364;14.874;2023-12-07T08:46:33;99042.16;;;1.20;100.00
66547;BME280;53400;50.364;14.874;2023-12-07T08:49:00;99043.56;;;1.08;100.00
66547;BME280;53400;50.364;14.874;2023-12-07T08:51:25;99033.25;;;1.21;100.00
66547;BME280;53400;50.364;14.874;2023-12-07T08:53:52;99036.41;;;1.40;100.00
66547;BME280;53400;50.364;14.874;2023-12-07T08:56:18;99041.13;;;1.52;100.00
66547;BME280;53400;50.364;14.874;2023-12-07T08:58:45;99043.22;;;1.57;100.00
66547;BME280;53400;50.364;14.874;2023-12-07T09:01:12;99039.78;;;1.56;100.00
66547;BME280;53400;50.364;14.874;2023-12-07T09:03:39;99037.59;;;1.60;100.00
66547;BME280;53400;50.364;14.874;2023-12-07T09:06:07;99042.78;;;1.53;100.00
66547;BME280;53400;50.364;14.874;2023-12-07T09:08:34;99040.53;;;1.42;100.00
66547;BME280;53400;50.364;14.874;2023-12-07T09:11:00;99049.81;;;1.38;100.00
66547;BME280;53400;50.364;14.874;2023-12-07T09:13:26;99049.78;;;1.15;100.00
66547;BME280;53400;50.364;14.874;2023-12-07T09:15:52;99049.38;;;1.26;100.00
66547;BME280;53400;50.364;14.874;2023-12-07T09:18:21;99045.50;;;1.14;100.00
66547;BME280;53400;50.364;14.874;2023-12-07T09:20:47;99049.38;;;1.26;100.00
66547;BME280;53400;50.364;14.874;2023-12-07T09:23:14;99056.38;;;1.19;100.00
66547;BME280;53400;50.364;14.874;2023-12-07T09:25:43;99051.13;;;1.11;100.00
66547;BME280;53400;50.364;14.874;2023-12-07T09:28:10;99053.88;;;1.18;100.00
66547;BME280;53400;50.364;14.874;2023-12-07T09:30:35;99052.50;;;0.99;100.00
66547;BME280;53400;50.364;14.874;2023-12-07T09:33:01;99052.84;;;1.27;100.00
66547;BME280;53400;50.364;14.874;2023-12-07T09:35:32;99045.72;;;1.58;100.00
66547;BME280;53400;50.364;14.874;2023-12-07T09:38:00;99057.66;;;1.23;100.00
66547;BME280;53400;50.364;14.874;2023-12-07T09:40:26;99048.56;;;1.72;100.00
66547;BME280;53400;50.364;14.874;2023-12-07T09:42:54;99046.34;;;1.37;100.00
66547;BME280;53400;50.364;14.874;2023-12-07T09:45:20;99051.22;;;1.26;100.00
66547;BME280;53400;50.364;14.874;2023-12-07T09:47:48;99050.25;;;1.19;100.00
66547;BME280;53400;50.364;14.874;2023-12-07T09:50:15;99041.97;;;0.99;100.00
66547;BME280;53400;50.364;14.874;2023-12-07T09:52:47;99046.78;;;1.18;100.00
66547;BME280;53400;50.364;14.874;2023-12-07T09:55:13;99049.00;;;1.06;100.00
66547;BME280;53400;50.364;14.874;2023-12-07T09:57:39;99046.84;;;1.10;100.00
66547;BME280;53400;50.364;14.874;2023-12-07T10:00:06;99045.47;;;1.22;100.00
66547;BME280;53400;50.364;14.874;2023-12-07T10:02:37;99046.28;;;1.69;100.00
66547;BME280;53400;50.364;14.874;2023-12-07T10:05:07;99047.81;;;1.86;100.00
66547;BME280;53400;50.364;14.874;2023-12-07T10:07:34;99044.66;;;1.82;100.00
66547;BME280;53400;50.364;14.874;2023-12-07T10:10:06;99047.34;;;1.97;100.00
66547;BME280;53400;50.364;14.874;2023-12-07T10:12:34;99041.69;;;1.40;100.00
66547;BME280;53400;50.364;14.874;2023-12-07T10:15:00;99049.16;;;1.36;100.00
66547;BME280;53400;50.364;14.874;2023-12-07T10:17:46;99050.31;;;1.10;100.00
66547;BME280;53400;50.364;14.874;2023-12-07T10:20:16;99042.75;;;1.76;100.00
66547;BME280;53400;50.364;14.874;2023-12-07T10:22:43;99035.53;;;1.24;100.00
66547;BME280;53400;50.364;14.874;2023-12-07T10:25:11;99039.47;;;1.51;100.00
66547;BME280;53400;50.364;14.874;2023-12-07T10:27:41;99025.72;;;1.79;100.00
66547;BME280;53400;50.364;14.874;2023-12-07T10:30:18;99028.09;;;1.51;100.00
66547;BME280;53400;50.364;14.874;2023-12-07T10:32:50;99028.47;;;1.48;100.00
66547;BME280;53400;50.364;14.874;2023-12-07T10:35:17;99023.59;;;1.59;100.00
66547;BME280;53400;50.364;14.874;2023-12-07T10:37:44;99023.41;;;2.73;100.00
66547;BME280;53400;50.364;14.874;2023-12-07T10:40:12;99027.97;;;2.64;100.00
66547;BME280;53400;50.364;14.874;2023-12-07T10:42:40;99034.44;;;2.76;100.00
66547;BME280;53400;50.364;14.874;2023-12-07T10:45:07;99032.63;;;2.18;100.00
66547;BME280;53400;50.364;14.874;2023-12-07T10:47:39;99031.91;;;1.25;100.00
66547;BME280;53400;50.364;14.874;2023-12-07T10:50:07;99030.09;;;1.49;100.00
66547;BME280;53400;50.364;14.874;2023-12-07T10:52:42;99031.47;;;1.82;100.00
66547;BME280;53400;50.364;14.874;2023-12-07T10:55:16;99028.81;;;2.20;100.00
66547;BME280;53400;50.364;14.874;2023-12-07T10:57:42;99024.13;;;1.93;100.00
66547;BME280;53400;50.364;14.874;2023-12-07T11:00:11;99025.22;;;1.98;100.00
66547;BME280;53400;50.364;14.874;2023-12-07T11:02:38;99026.53;;;1.65;100.00
66547;BME280;53400;50.364;14.874;2023-12-07T11:05:05;99029.97;;;1.65;100.00
66547;BME280;53400;50.364;14.874;2023-12-07T11:07:39;99029.56;;;1.53;100.00
66547;BME280;53400;50.364;14.874;2023-12-07T11:10:14;99032.19;;;2.44;100.00
66547;BME280;53400;50.364;14.874;2023-12-07T11:12:47;99033.34;;;1.59;100.00
66547;BME280;53400;50.364;14.874;2023-12-07T11:15:15;99030.91;;;1.72;100.00
66547;BME280;53400;50.364;14.874;2023-12-07T11:17:50;99031.78;;;1.19;100.00
66547;BME280;53400;50.364;14.874;2023-12-07T11:20:21;99026.66;;;1.25;100.00
66547;BME280;53400;50.364;14.874;2023-12-07T11:22:48;99023.00;;;1.26;100.00
66547;BME280;53400;50.364;14.874;2023-12-07T11:25:16;99020.13;;;1.36;100.00
66547;BME280;53400;50.364;14.874;2023-12-07T11:27:46;99024.88;;;1.41;100.00
66547;BME280;53400;50.364;14.874;2023-12-07T11:30:14;99030.38;;;1.08;100.00
66547;BME280;53400;50.364;14.874;2023-12-07T11:32:41;99026.56;;;1.10;100.00
66547;BME280;53400;50.364;14.874;2023-12-07T11:35:11;99027.06;;;1.06;100.00
66547;BME280;53400;50.364;14.874;2023-12-07T11:38:00;99022.22;;;1.18;100.00
66547;BME280;53400;50.364;14.874;2023-12-07T11:40:30;99022.66;;;1.29;100.00
66547;BME280;53400;50.364;14.874;2023-12-07T11:42:59;99023.22;;;1.40;100.00
66547;BME280;53400;50.364;14.874;2023-12-07T11:45:41;99024.06;;;1.17;100.00
66547;BME280;53400;50.364;14.874;2023-12-07T11:48:12;99019.50;;;1.34;100.00
66547;BME280;53400;50.364;14.874;2023-12-07T11:50:53;99013.97;;;1.21;100.00
66547;BME280;53400;50.364;14.874;2023-12-07T11:53:22;99023.94;;;1.10;100.00
66547;BME280;53400;50.364;14.874;2023-12-07T11:55:51;99020.88;;;1.22;100.00
66547;BME280;53400;50.364;14.874;2023-12-07T11:58:18;99032.13;;;1.15;100.00
66547;BME280;53400;50.364;14.874;2023-12-07T12:00:44;99023.16;;;1.25;100.00
66547;BME280;53400;50.364;14.874;2023-12-07T12:03:12;99026.03;;;1.15;100.00
66547;BME280;53400;50.364;14.874;2023-12-07T12:05:38;99020.13;;;1.13;100.00
66547;BME280;53400;50.364;14.874;2023-12-07T12:08:06;99008.28;;;1.32;100.00
66547;BME280;53400;50.364;14.874;2023-12-07T12:10:32;99014.88;;;1.28;100.00
66547;BME280;53400;50.364;14.874;2023-12-07T12:13:02;99014.44;;;1.24;100.00
66547;BME280;53400;50.364;14.874;2023-12-07T12:15:28;99012.44;;;1.26;100.00
66547;BME280;53400;50.364;14.874;2023-12-07T12:17:59;99007.88;;;1.20;100.00
66547;BME280;53400;50.364;14.874;2023-12-07T12:20:40;99018.53;;;1.27;100.00
66547;BME280;53400;50.364;14.874;2023-12-07T12:23:06;99011.94;;;1.31;100.00
66547;BME280;53400;50.364;14.874;2023-12-07T12:25:32;99010.19;;;1.15;100.00
66547;BME280;53400;50.364;14.874;2023-12-07T12:28:04;99011.81;;;0.93;100.00
66547;BME280;53400;50.364;14.874;2023-12-07T12:30:30;99014.22;;;1.03;100.00
66547;BME280;53400;50.364;14.874;2023-12-07T12:32:58;99011.91;;;0.77;100.00
66547;BME280;53400;50.364;14.874;2023-12-07T12:35:25;99005.28;;;0.50;100.00
66547;BME280;53400;50.364;14.874;2023-12-07T12:37:52;99011.25;;;0.75;100.00
66547;BME280;53400;50.364;14.874;2023-12-07T12:40:18;99014.78;;;0.59;100.00
66547;BME280;53400;50.364;14.874;2023-12-07T12:42:46;99017.06;;;0.70;100.00
66547;BME280;53400;50.364;14.874;2023-12-07T12:45:14;99006.03;;;0.98;100.00
66547;BME280;53400;50.364;14.874;2023-12-07T12:47:41;99007.00;;;0.97;100.00